sensor_id;sensor_type;location;lat;lon;timestamp;pressure;altitude;pressure_sealevel;temperature;humidity
21096;BME280;10706;49.036;12.112;2023-05-19T00:01:41;98291.31;;;10.41;72.01
21096;BME280;10706;49.036;12.112;2023-05-19T00:04:09;98293.84;;;10.36;72.51
21096;BME280;10706;49.036;12.112;2023-05-19T00:06:37;98283.81;;;10.31;73.42
21096;BME280;10706;49.036;12.112;2023-05-19T00:09:06;98282.38;;;10.28;74.96
21096;BME280;10706;49.036;12.112;2023-05-19T00:11:33;98284.31;;;10.21;74.13
21096;BME280;10706;49.036;12.112;2023-05-19T00:14:06;98279.22;;;10.13;73.72
21096;BME280;10706;49.036;12.112;2023-05-19T00:16:32;98282.56;;;10.08;75.13
21096;BME280;10706;49.036;12.112;2023-05-19T00:19:00;98277.88;;;10.04;75.64
21096;BME280;10706;49.036;12.112;2023-05-19T00:21:26;98286.09;;;10.02;74.51
21096;BME280;10706;49.036;12.112;2023-05-19T00:23:53;98275.66;;;10.01;75.03
21096;BME280;10706;49.036;12.112;2023-05-19T00:26:19;98279.13;;;10.01;74.55
21096;BME280;10706;49.036;12.112;2023-05-19T00:28:46;98278.91;;;10.03;74.69
21096;BME280;10706;49.036;12.112;2023-05-19T00:31:12;98263.94;;;10.02;73.19
21096;BME280;10706;49.036;12.112;2023-05-19T00:33:37;98270.91;;;10.03;73.75
21096;BME280;10706;49.036;12.112;2023-05-19T00:36:03;98275.88;;;9.99;74.37
21096;BME280;10706;49.036;12.112;2023-05-19T00:38:32;98269.97;;;9.90;73.87
21096;BME280;10706;49.036;12.112;2023-05-19T00:41:00;98267.38;;;9.84;75.92
21096;BME280;10706;49.036;12.112;2023-05-19T00:43:26;98266.00;;;9.75;74.90
21096;BME280;10706;49.036;12.112;2023-05-19T00:45:52;98266.25;;;9.66;75.74
21096;BME280;10706;49.036;12.112;2023-05-19T00:48:18;98257.84;;;9.63;75.23
21096;BME280;10706;49.036;12.112;2023-05-19T00:50:44;98252.97;;;9.60;75.32
21096;BME280;10706;49.036;12.112;2023-05-19T00:53:12;98260.16;;;9.59;75.34
21096;BME280;10706;49.036;12.112;2023-05-19T00:55:38;98250.56;;;9.51;75.71
21096;BME280;10706;49.036;12.112;2023-05-19T00:58:06;98259.81;;;9.49;74.56
21096;BME280;10706;49.036;12.112;2023-05-19T01:00:34;98250.63;;;9.45;74.79
21096;BME280;10706;49.036;12.112;2023-05-19T01:03:02;98253.09;;;9.40;76.52
21096;BME280;10706;49.036;12.112;2023-05-19T01:05:38;98254.97;;;9.32;76.18
21096;BME280;10706;49.036;12.112;2023-05-19T01:08:04;98251.13;;;9.28;77.37
21096;BME280;10706;49.036;12.112;2023-05-19T01:10:31;98248.50;;;9.22;77.08
21096;BME280;10706;49.036;12.112;2023-05-19T01:12:57;98256.53;;;9.15;78.16
21096;BME280;10706;49.036;12.112;2023-05-19T01:15:25;98251.22;;;9.08;77.52
21096;BME280;10706;49.036;12.112;2023-05-19T01:18:13;98256.19;;;9.05;78.93
21096;BME280;10706;49.036;12.112;2023-05-19T01:20:48;98252.28;;;9.01;77.99
21096;BME280;10706;49.036;12.112;2023-05-19T01:23:35;98250.88;;;8.98;78.86
21096;BME280;10706;49.036;12.112;2023-05-19T01:26:46;98240.06;;;8.86;79.74
21096;BME280;10706;49.036;12.112;2023-05-19T01:32:24;98246.47;;;8.72;80.60
21096;BME280;10706;49.036;12.112;2023-05-19T01:34:52;98249.34;;;8.70;80.48
21096;BME280;10706;49.036;12.112;2023-05-19T01:37:20;98246.28;;;8.67;80.21
21096;BME280;10706;49.036;12.112;2023-05-19T01:39:47;98249.94;;;8.72;80.35
21096;BME280;10706;49.036;12.112;2023-05-19T01:42:14;98248.31;;;8.71;81.59
21096;BME280;10706;49.036;12.112;2023-05-19T01:44:41;98243.81;;;8.72;80.72
21096;BME280;10706;49.036;12.112;2023-05-19T01:47:09;98244.41;;;8.74;80.19
21096;BME280;10706;49.036;12.112;2023-05-19T01:49:35;98244.41;;;8.81;80.91
21096;BME280;10706;49.036;12.112;2023-05-19T01:52:01;98232.50;;;8.83;79.18
21096;BME280;10706;49.036;12.112;2023-05-19T01:54:27;98231.22;;;8.92;79.63
21096;BME280;10706;49.036;12.112;2023-05-19T02:05:56;98230.25;;;9.25;76.32
21096;BME280;10706;49.036;12.112;2023-05-19T02:08:29;98225.28;;;9.29;75.90
21096;BME280;10706;49.036;12.112;2023-05-19T02:11:03;98226.31;;;9.28;75.77
21096;BME280;10706;49.036;12.112;2023-05-19T02:13:33;98226.94;;;9.30;75.68
21096;BME280;10706;49.036;12.112;2023-05-19T02:16:04;98231.00;;;9.32;74.38
21096;BME280;10706;49.036;12.112;2023-05-19T02:18:32;98224.88;;;9.32;76.50
21096;BME280;10706;49.036;12.112;2023-05-19T02:20:58;98223.97;;;9.45;75.25
21096;BME280;10706;49.036;12.112;2023-05-19T02:23:24;98223.91;;;9.51;73.71
21096;BME280;10706;49.036;12.112;2023-05-19T02:25:49;98211.63;;;9.50;73.74
21096;BME280;10706;49.036;12.112;2023-05-19T02:28:16;98220.59;;;9.56;73.78
21096;BME280;10706;49.036;12.112;2023-05-19T02:30:42;98222.69;;;9.47;75.09
21096;BME280;10706;49.036;12.112;2023-05-19T02:33:07;98215.53;;;9.48;73.27
21096;BME280;10706;49.036;12.112;2023-05-19T02:35:36;98212.88;;;9.48;74.44
21096;BME280;10706;49.036;12.112;2023-05-19T02:38:02;98221.91;;;9.47;73.24
21096;BME280;10706;49.036;12.112;2023-05-19T02:40:28;98226.03;;;9.43;74.69
21096;BME280;10706;49.036;12.112;2023-05-19T02:42:53;98220.91;;;9.41;74.84
21096;BME280;10706;49.036;12.112;2023-05-19T02:45:19;98219.25;;;9.40;74.34
21096;BME280;10706;49.036;12.112;2023-05-19T02:47:45;98219.25;;;9.40;73.91
21096;BME280;10706;49.036;12.112;2023-05-19T02:50:10;98219.06;;;9.42;74.51
21096;BME280;10706;49.036;12.112;2023-05-19T02:52:36;98221.03;;;9.53;74.26
21096;BME280;10706;49.036;12.112;2023-05-19T02:55:02;98223.38;;;9.43;73.21
21096;BME280;10706;49.036;12.112;2023-05-19T02:57:28;98218.16;;;9.54;73.14
21096;BME280;10706;49.036;12.112;2023-05-19T02:59:56;98221.47;;;9.50;72.69
21096;BME280;10706;49.036;12.112;2023-05-19T03:02:22;98217.81;;;9.44;73.89
21096;BME280;10706;49.036;12.112;2023-05-19T03:04:47;98213.72;;;9.42;73.86
21096;BME280;10706;49.036;12.112;2023-05-19T03:07:13;98211.13;;;9.35;75.05
21096;BME280;10706;49.036;12.112;2023-05-19T03:09:40;98207.84;;;9.33;73.21
21096;BME280;10706;49.036;12.112;2023-05-19T03:12:06;98205.56;;;9.37;73.99
21096;BME280;10706;49.036;12.112;2023-05-19T03:14:34;98211.06;;;9.42;73.13
21096;BME280;10706;49.036;12.112;2023-05-19T03:17:02;98205.94;;;9.40;73.98
21096;BME280;10706;49.036;12.112;2023-05-19T03:19:27;98204.31;;;9.39;74.61
21096;BME280;10706;49.036;12.112;2023-05-19T03:21:53;98208.66;;;9.33;74.30
21096;BME280;10706;49.036;12.112;2023-05-19T03:24:20;98217.25;;;9.36;73.79
21096;BME280;10706;49.036;12.112;2023-05-19T03:26:46;98202.69;;;9.38;74.01
21096;BME280;10706;49.036;12.112;2023-05-19T03:29:12;98208.34;;;9.48;73.00
21096;BME280;10706;49.036;12.112;2023-05-19T03:31:38;98225.38;;;9.47;73.95
21096;BME280;10706;49.036;12.112;2023-05-19T03:34:03;98223.66;;;9.60;73.81
21096;BME280;10706;49.036;12.112;2023-05-19T03:36:29;98232.88;;;9.57;73.19
21096;BME280;10706;49.036;12.112;2023-05-19T03:39:04;98228.00;;;9.54;73.37
21096;BME280;10706;49.036;12.112;2023-05-19T03:41:31;98233.34;;;9.54;73.01
21096;BME280;10706;49.036;12.112;2023-05-19T03:43:57;98229.69;;;9.48;74.54
21096;BME280;10706;49.036;12.112;2023-05-19T03:46:22;98226.34;;;9.53;73.58
21096;BME280;10706;49.036;12.112;2023-05-19T03:48:48;98227.13;;;9.60;73.51
21096;BME280;10706;49.036;12.112;2023-05-19T03:51:14;98233.72;;;9.58;72.75
21096;BME280;10706;49.036;12.112;2023-05-19T03:53:40;98235.56;;;9.57;72.85
21096;BME280;10706;49.036;12.112;2023-05-19T03:56:06;98234.91;;;9.62;73.83
21096;BME280;10706;49.036;12.112;2023-05-19T03:58:32;98235.13;;;9.60;73.35
21096;BME280;10706;49.036;12.112;2023-05-19T04:00:58;98231.19;;;9.63;73.21
21096;BME280;10706;49.036;12.112;2023-05-19T04:03:24;98234.72;;;9.63;73.64
21096;BME280;10706;49.036;12.112;2023-05-19T04:05:53;98230.56;;;9.67;74.39
21096;BME280;10706;49.036;12.112;2023-05-19T04:08:18;98229.97;;;9.65;73.25
21096;BME280;10706;49.036;12.112;2023-05-19T04:10:44;98242.63;;;9.70;74.18
21096;BME280;10706;49.036;12.112;2023-05-19T04:13:10;98235.47;;;9.70;73.68
21096;BME280;10706;49.036;12.112;2023-05-19T04:15:36;98234.59;;;9.77;74.41
21096;BME280;10706;49.036;12.112;2023-05-19T04:18:01;98233.78;;;9.76;74.70
21096;BME280;10706;49.036;12.112;2023-05-19T04:20:27;98230.28;;;9.76;74.38
21096;BME280;10706;49.036;12.112;2023-05-19T04:22:53;98234.59;;;9.77;73.79
21096;BME280;10706;49.036;12.112;2023-05-19T04:25:18;98237.44;;;9.82;73.64
21096;BME280;10706;49.036;12.112;2023-05-19T04:27:45;98232.50;;;9.85;73.14
21096;BME280;10706;49.036;12.112;2023-05-19T04:30:11;98233.91;;;9.88;73.85
21096;BME280;10706;49.036;12.112;2023-05-19T04:32:36;98228.97;;;9.85;72.45
21096;BME280;10706;49.036;12.112;2023-05-19T04:35:04;98229.56;;;9.87;74.07
21096;BME280;10706;49.036;12.112;2023-05-19T04:37:30;98233.47;;;9.91;72.91
21096;BME280;10706;49.036;12.112;2023-05-19T04:39:56;98230.28;;;9.76;73.89
21096;BME280;10706;49.036;12.112;2023-05-19T04:42:21;98228.56;;;9.88;74.50
21096;BME280;10706;49.036;12.112;2023-05-19T04:44:50;98230.94;;;9.96;72.69
21096;BME280;10706;49.036;12.112;2023-05-19T04:47:16;98229.25;;;10.02;72.29
21096;BME280;10706;49.036;12.112;2023-05-19T04:49:42;98223.34;;;10.18;71.91
21096;BME280;10706;49.036;12.112;2023-05-19T04:52:10;98225.22;;;10.18;72.07
21096;BME280;10706;49.036;12.112;2023-05-19T04:54:37;98231.56;;;10.17;72.11
21096;BME280;10706;49.036;12.112;2023-05-19T04:57:04;98234.06;;;10.11;72.35
21096;BME280;10706;49.036;12.112;2023-05-19T04:59:30;98235.59;;;10.26;72.31
21096;BME280;10706;49.036;12.112;2023-05-19T05:01:56;98227.81;;;10.24;72.77
21096;BME280;10706;49.036;12.112;2023-05-19T05:04:22;98230.56;;;10.18;71.81
21096;BME280;10706;49.036;12.112;2023-05-19T05:06:49;98229.88;;;10.22;71.54
21096;BME280;10706;49.036;12.112;2023-05-19T05:09:15;98224.06;;;10.32;71.00
21096;BME280;10706;49.036;12.112;2023-05-19T05:11:42;98224.53;;;10.22;72.54
21096;BME280;10706;49.036;12.112;2023-05-19T05:14:08;98220.22;;;10.46;70.67
21096;BME280;10706;49.036;12.112;2023-05-19T05:16:35;98227.06;;;10.61;69.54
21096;BME280;10706;49.036;12.112;2023-05-19T05:19:02;98228.06;;;10.60;70.81
21096;BME280;10706;49.036;12.112;2023-05-19T05:21:28;98227.63;;;10.63;70.01
21096;BME280;10706;49.036;12.112;2023-05-19T05:23:54;98213.97;;;10.71;70.98
21096;BME280;10706;49.036;12.112;2023-05-19T05:26:21;98217.06;;;10.86;69.49
21096;BME280;10706;49.036;12.112;2023-05-19T05:28:48;98219.66;;;10.93;68.81
21096;BME280;10706;49.036;12.112;2023-05-19T05:31:14;98216.78;;;10.95;70.12
21096;BME280;10706;49.036;12.112;2023-05-19T05:33:41;98218.59;;;10.94;68.43
21096;BME280;10706;49.036;12.112;2023-05-19T05:36:07;98220.06;;;11.08;68.70
21096;BME280;10706;49.036;12.112;2023-05-19T05:38:33;98221.56;;;11.04;67.69
21096;BME280;10706;49.036;12.112;2023-05-19T05:41:00;98212.41;;;11.12;68.24
21096;BME280;10706;49.036;12.112;2023-05-19T05:43:28;98224.88;;;11.18;68.09
21096;BME280;10706;49.036;12.112;2023-05-19T05:45:55;98220.03;;;11.27;67.15
21096;BME280;10706;49.036;12.112;2023-05-19T05:48:22;98216.41;;;11.21;67.74
21096;BME280;10706;49.036;12.112;2023-05-19T05:50:48;98210.69;;;11.18;67.63
21096;BME280;10706;49.036;12.112;2023-05-19T05:53:24;98213.75;;;11.33;67.50
21096;BME280;10706;49.036;12.112;2023-05-19T05:55:51;98209.25;;;11.34;68.37
21096;BME280;10706;49.036;12.112;2023-05-19T05:58:18;98219.28;;;11.50;67.32
21096;BME280;10706;49.036;12.112;2023-05-19T06:00:54;98216.88;;;11.60;67.52
21096;BME280;10706;49.036;12.112;2023-05-19T06:03:22;98217.69;;;11.73;65.99
21096;BME280;10706;49.036;12.112;2023-05-19T06:05:48;98210.25;;;11.75;66.37
21096;BME280;10706;49.036;12.112;2023-05-19T06:08:14;98212.50;;;11.90;65.74
21096;BME280;10706;49.036;12.112;2023-05-19T06:10:41;98208.38;;;11.63;65.83
21096;BME280;10706;49.036;12.112;2023-05-19T06:13:08;98209.66;;;11.73;66.03
21096;BME280;10706;49.036;12.112;2023-05-19T06:15:35;98205.25;;;11.78;66.59
21096;BME280;10706;49.036;12.112;2023-05-19T06:18:01;98199.44;;;11.81;66.21
21096;BME280;10706;49.036;12.112;2023-05-19T06:20:26;98207.38;;;11.88;65.22
21096;BME280;10706;49.036;12.112;2023-05-19T06:22:52;98203.56;;;12.08;65.03
21096;BME280;10706;49.036;12.112;2023-05-19T06:25:18;98201.09;;;12.06;65.59
21096;BME280;10706;49.036;12.112;2023-05-19T06:27:45;98200.50;;;12.16;65.48
21096;BME280;10706;49.036;12.112;2023-05-19T06:30:11;98208.44;;;12.22;64.66
21096;BME280;10706;49.036;12.112;2023-05-19T06:32:37;98200.28;;;12.29;64.52
21096;BME280;10706;49.036;12.112;2023-05-19T06:35:04;98201.44;;;12.33;64.75
21096;BME280;10706;49.036;12.112;2023-05-19T06:37:29;98194.28;;;12.62;63.46
21096;BME280;10706;49.036;12.112;2023-05-19T06:39:55;98198.78;;;12.74;64.63
21096;BME280;10706;49.036;12.112;2023-05-19T06:42:21;98196.66;;;12.88;63.39
21096;BME280;10706;49.036;12.112;2023-05-19T06:44:48;98204.59;;;13.11;63.12
21096;BME280;10706;49.036;12.112;2023-05-19T06:47:15;98206.81;;;13.14;61.66
21096;BME280;10706;49.036;12.112;2023-05-19T06:49:41;98211.25;;;13.09;61.76
21096;BME280;10706;49.036;12.112;2023-05-19T06:52:10;98199.00;;;13.13;62.52
21096;BME280;10706;49.036;12.112;2023-05-19T06:54:36;98200.00;;;13.52;60.77
21096;BME280;10706;49.036;12.112;2023-05-19T06:57:02;98200.41;;;13.44;61.28
21096;BME280;10706;49.036;12.112;2023-05-19T06:59:28;98202.19;;;13.55;60.79
21096;BME280;10706;49.036;12.112;2023-05-19T07:01:55;98203.44;;;13.65;61.15
21096;BME280;10706;49.036;12.112;2023-05-19T07:04:21;98197.06;;;13.54;60.52
21096;BME280;10706;49.036;12.112;2023-05-19T07:06:46;98196.09;;;13.77;60.37
21096;BME280;10706;49.036;12.112;2023-05-19T07:09:14;98199.91;;;13.81;60.07
21096;BME280;10706;49.036;12.112;2023-05-19T07:11:40;98189.09;;;14.10;61.51
21096;BME280;10706;49.036;12.112;2023-05-19T07:14:09;98185.72;;;14.19;58.93
21096;BME280;10706;49.036;12.112;2023-05-19T07:16:34;98177.69;;;14.03;59.64
21096;BME280;10706;49.036;12.112;2023-05-19T07:19:00;98188.03;;;13.60;59.62
21096;BME280;10706;49.036;12.112;2023-05-19T07:21:26;98192.81;;;13.41;60.43
21096;BME280;10706;49.036;12.112;2023-05-19T07:23:52;98188.59;;;13.45;60.21
21096;BME280;10706;49.036;12.112;2023-05-19T07:26:18;98193.09;;;13.28;61.36
21096;BME280;10706;49.036;12.112;2023-05-19T07:28:44;98189.72;;;13.49;61.36
21096;BME280;10706;49.036;12.112;2023-05-19T07:31:10;98182.44;;;13.45;61.06
21096;BME280;10706;49.036;12.112;2023-05-19T07:33:35;98182.34;;;13.39;63.25
21096;BME280;10706;49.036;12.112;2023-05-19T07:36:01;98177.94;;;13.33;62.48
21096;BME280;10706;49.036;12.112;2023-05-19T07:38:27;98187.38;;;13.53;61.33
21096;BME280;10706;49.036;12.112;2023-05-19T07:40:53;98183.81;;;13.47;61.19
21096;BME280;10706;49.036;12.112;2023-05-19T07:43:19;98175.75;;;13.64;60.18
21096;BME280;10706;49.036;12.112;2023-05-19T07:45:44;98184.06;;;13.79;61.76
21096;BME280;10706;49.036;12.112;2023-05-19T07:48:10;98182.16;;;14.14;58.96
21096;BME280;10706;49.036;12.112;2023-05-19T07:50:36;98182.22;;;14.19;58.72
21096;BME280;10706;49.036;12.112;2023-05-19T07:53:02;98184.56;;;14.32;58.33
21096;BME280;10706;49.036;12.112;2023-05-19T07:55:28;98173.84;;;14.37;58.28
21096;BME280;10706;49.036;12.112;2023-05-19T07:57:53;98167.81;;;14.25;58.95
21096;BME280;10706;49.036;12.112;2023-05-19T08:00:19;98175.88;;;14.47;59.02
21096;BME280;10706;49.036;12.112;2023-05-19T08:02:45;98173.53;;;14.51;58.54
21096;BME280;10706;49.036;12.112;2023-05-19T08:05:11;98164.69;;;14.33;58.79
21096;BME280;10706;49.036;12.112;2023-05-19T08:07:39;98163.25;;;14.48;56.96
21096;BME280;10706;49.036;12.112;2023-05-19T08:10:06;98160.28;;;14.66;55.95
21096;BME280;10706;49.036;12.112;2023-05-19T08:12:31;98168.03;;;14.85;55.56
21096;BME280;10706;49.036;12.112;2023-05-19T08:14:57;98170.91;;;15.05;55.20
21096;BME280;10706;49.036;12.112;2023-05-19T08:17:23;98164.81;;;14.88;54.99
21096;BME280;10706;49.036;12.112;2023-05-19T08:19:49;98160.75;;;15.12;54.12
21096;BME280;10706;49.036;12.112;2023-05-19T08:22:15;98168.91;;;15.18;54.66
21096;BME280;10706;49.036;12.112;2023-05-19T08:24:41;98160.16;;;15.32;55.76
21096;BME280;10706;49.036;12.112;2023-05-19T08:27:07;98164.88;;;15.47;55.72
21096;BME280;10706;49.036;12.112;2023-05-19T08:29:33;98161.47;;;15.94;55.57
21096;BME280;10706;49.036;12.112;2023-05-19T08:31:59;98156.75;;;16.17;54.03
21096;BME280;10706;49.036;12.112;2023-05-19T08:34:26;98153.06;;;16.33;52.42
21096;BME280;10706;49.036;12.112;2023-05-19T08:36:51;98150.75;;;16.58;52.65
21096;BME280;10706;49.036;12.112;2023-05-19T08:39:17;98149.66;;;16.48;51.25
21096;BME280;10706;49.036;12.112;2023-05-19T08:41:48;98149.84;;;16.37;51.60
21096;BME280;10706;49.036;12.112;2023-05-19T08:44:14;98144.75;;;16.45;52.44
21096;BME280;10706;49.036;12.112;2023-05-19T08:46:40;98144.28;;;16.54;52.77
21096;BME280;10706;49.036;12.112;2023-05-19T08:49:12;98139.22;;;16.73;50.36
21096;BME280;10706;49.036;12.112;2023-05-19T08:54:14;98135.06;;;16.49;51.71
21096;BME280;10706;49.036;12.112;2023-05-19T08:56:43;98136.97;;;16.49;50.86
21096;BME280;10706;49.036;12.112;2023-05-19T08:59:12;98131.31;;;16.50;50.51
21096;BME280;10706;49.036;12.112;2023-05-19T09:01:41;98125.47;;;16.79;51.64
21096;BME280;10706;49.036;12.112;2023-05-19T09:04:09;98127.72;;;17.03;50.62
21096;BME280;10706;49.036;12.112;2023-05-19T09:06:35;98118.53;;;17.04;50.64
21096;BME280;10706;49.036;12.112;2023-05-19T09:09:00;98118.25;;;17.00;50.62
21096;BME280;10706;49.036;12.112;2023-05-19T09:11:26;98117.19;;;17.17;50.90
21096;BME280;10706;49.036;12.112;2023-05-19T09:13:52;98114.50;;;17.01;49.40
21096;BME280;10706;49.036;12.112;2023-05-19T09:16:18;98117.44;;;17.00;51.19
21096;BME280;10706;49.036;12.112;2023-05-19T09:18:56;98111.00;;;17.26;48.72
21096;BME280;10706;49.036;12.112;2023-05-19T09:21:31;98111.56;;;17.39;50.23
21096;BME280;10706;49.036;12.112;2023-05-19T09:24:06;98116.66;;;17.51;50.71
21096;BME280;10706;49.036;12.112;2023-05-19T09:26:41;98113.44;;;17.38;50.18
21096;BME280;10706;49.036;12.112;2023-05-19T09:29:15;98115.31;;;17.43;51.84
21096;BME280;10706;49.036;12.112;2023-05-19T09:31:48;98111.00;;;17.47;50.98
21096;BME280;10706;49.036;12.112;2023-05-19T09:34:17;98109.09;;;17.32;51.25
21096;BME280;10706;49.036;12.112;2023-05-19T09:36:45;98113.41;;;17.84;49.39
21096;BME280;10706;49.036;12.112;2023-05-19T09:39:23;98112.63;;;17.38;49.43
21096;BME280;10706;49.036;12.112;2023-05-19T09:41:54;98104.78;;;17.67;50.09
21096;BME280;10706;49.036;12.112;2023-05-19T09:44:25;98105.31;;;17.95;48.69
21096;BME280;10706;49.036;12.112;2023-05-19T09:46:55;98104.22;;;17.96;48.39
21096;BME280;10706;49.036;12.112;2023-05-19T09:49:26;98110.72;;;17.79;48.33
21096;BME280;10706;49.036;12.112;2023-05-19T09:51:55;98092.34;;;17.86;48.30
21096;BME280;10706;49.036;12.112;2023-05-19T09:54:22;98094.72;;;18.03;48.13
21096;BME280;10706;49.036;12.112;2023-05-19T09:56:59;98093.97;;;17.67;48.10
21096;BME280;10706;49.036;12.112;2023-05-19T09:59:26;98086.41;;;17.90;49.49
21096;BME280;10706;49.036;12.112;2023-05-19T10:01:58;98094.63;;;18.39;49.53
21096;BME280;10706;49.036;12.112;2023-05-19T10:04:26;98084.94;;;18.78;47.04
21096;BME280;10706;49.036;12.112;2023-05-19T10:06:53;98086.94;;;18.62;46.88
21096;BME280;10706;49.036;12.112;2023-05-19T10:09:28;98078.47;;;18.19;47.15
21096;BME280;10706;49.036;12.112;2023-05-19T10:11:55;98080.69;;;18.06;47.73
21096;BME280;10706;49.036;12.112;2023-05-19T10:14:27;98081.47;;;18.12;49.08
21096;BME280;10706;49.036;12.112;2023-05-19T10:16:56;98083.03;;;18.29;47.76
21096;BME280;10706;49.036;12.112;2023-05-19T10:19:27;98080.69;;;18.01;48.80
21096;BME280;10706;49.036;12.112;2023-05-19T10:21:54;98073.88;;;18.19;47.47
21096;BME280;10706;49.036;12.112;2023-05-19T10:24:20;98073.41;;;18.02;46.96
21096;BME280;10706;49.036;12.112;2023-05-19T10:27:10;98075.31;;;17.81;50.78
21096;BME280;10706;49.036;12.112;2023-05-19T10:29:44;98071.84;;;17.60;51.77
21096;BME280;10706;49.036;12.112;2023-05-19T10:32:18;98069.97;;;17.50;50.60
21096;BME280;10706;49.036;12.112;2023-05-19T10:41:15;98052.09;;;18.50;47.22
21096;BME280;10706;49.036;12.112;2023-05-19T10:44:27;98046.53;;;18.81;48.44
21096;BME280;10706;49.036;12.112;2023-05-19T10:46:55;98039.72;;;19.52;46.88
21096;BME280;10706;49.036;12.112;2023-05-19T10:49:21;98040.75;;;19.56;47.12
21096;BME280;10706;49.036;12.112;2023-05-19T10:51:48;98048.31;;;19.30;46.22
21096;BME280;10706;49.036;12.112;2023-05-19T10:54:14;98042.88;;;19.35;47.02
21096;BME280;10706;49.036;12.112;2023-05-19T10:56:45;98045.75;;;18.75;46.99
21096;BME280;10706;49.036;12.112;2023-05-19T10:59:35;98048.91;;;18.88;47.63
21096;BME280;10706;49.036;12.112;2023-05-19T11:02:05;98038.03;;;18.53;47.37
21096;BME280;10706;49.036;12.112;2023-05-19T11:04:50;98040.59;;;18.29;49.52
21096;BME280;10706;49.036;12.112;2023-05-19T11:07:17;98047.38;;;18.16;49.09
21096;BME280;10706;49.036;12.112;2023-05-19T11:09:52;98042.94;;;18.41;46.73
21096;BME280;10706;49.036;12.112;2023-05-19T11:12:22;98049.28;;;18.21;50.80
21096;BME280;10706;49.036;12.112;2023-05-19T11:14:53;98044.06;;;18.35;49.44
21096;BME280;10706;49.036;12.112;2023-05-19T11:17:19;98035.38;;;18.88;49.54
21096;BME280;10706;49.036;12.112;2023-05-19T11:19:55;98033.97;;;19.30;45.93
21096;BME280;10706;49.036;12.112;2023-05-19T11:22:24;98041.63;;;19.22;46.60
21096;BME280;10706;49.036;12.112;2023-05-19T11:24:52;98028.00;;;19.57;45.44
21096;BME280;10706;49.036;12.112;2023-05-19T11:27:34;98021.00;;;19.80;44.15
21096;BME280;10706;49.036;12.112;2023-05-19T11:32:35;98022.59;;;19.57;45.35
21096;BME280;10706;49.036;12.112;2023-05-19T11:35:07;98021.72;;;19.03;47.28
21096;BME280;10706;49.036;12.112;2023-05-19T11:37:35;98019.72;;;19.19;48.35
21096;BME280;10706;49.036;12.112;2023-05-19T11:40:04;98019.91;;;18.93;47.19
21096;BME280;10706;49.036;12.112;2023-05-19T11:42:34;98020.03;;;18.73;47.53
21096;BME280;10706;49.036;12.112;2023-05-19T11:45:02;98025.84;;;18.95;47.89
21096;BME280;10706;49.036;12.112;2023-05-19T11:47:30;98030.75;;;19.28;47.07
21096;BME280;10706;49.036;12.112;2023-05-19T11:49:57;98014.97;;;20.12;44.07
21096;BME280;10706;49.036;12.112;2023-05-19T11:52:24;98021.13;;;21.46;43.17
21096;BME280;10706;49.036;12.112;2023-05-19T11:54:50;98017.78;;;21.49;40.46
21096;BME280;10706;49.036;12.112;2023-05-19T11:57:16;98015.13;;;21.30;42.50
21096;BME280;10706;49.036;12.112;2023-05-19T11:59:42;98015.75;;;20.75;43.18
21096;BME280;10706;49.036;12.112;2023-05-19T12:02:20;98017.97;;;20.30;44.37
21096;BME280;10706;49.036;12.112;2023-05-19T12:04:49;98016.97;;;20.26;43.71
21096;BME280;10706;49.036;12.112;2023-05-19T12:07:18;98015.53;;;20.09;44.76
21096;BME280;10706;49.036;12.112;2023-05-19T12:09:45;98015.66;;;19.99;44.13
21096;BME280;10706;49.036;12.112;2023-05-19T12:12:21;98021.63;;;20.01;44.22
21096;BME280;10706;49.036;12.112;2023-05-19T12:14:49;98005.13;;;19.97;43.56
21096;BME280;10706;49.036;12.112;2023-05-19T12:17:20;98009.97;;;19.76;44.98
21096;BME280;10706;49.036;12.112;2023-05-19T12:19:47;98008.34;;;19.75;45.51
21096;BME280;10706;49.036;12.112;2023-05-19T12:22:17;98006.06;;;19.58;45.87
21096;BME280;10706;49.036;12.112;2023-05-19T12:24:44;98003.97;;;19.79;45.94
21096;BME280;10706;49.036;12.112;2023-05-19T12:27:23;98014.00;;;20.03;45.45
21096;BME280;10706;49.036;12.112;2023-05-19T12:29:49;98009.13;;;20.00;44.79
21096;BME280;10706;49.036;12.112;2023-05-19T12:32:17;98005.78;;;20.08;44.22
21096;BME280;10706;49.036;12.112;2023-05-19T12:34:43;97990.41;;;20.99;43.10
21096;BME280;10706;49.036;12.112;2023-05-19T12:37:09;97985.97;;;22.69;41.32
21096;BME280;10706;49.036;12.112;2023-05-19T12:39:35;97982.47;;;23.45;40.16
21096;BME280;10706;49.036;12.112;2023-05-19T12:42:09;97984.41;;;24.86;36.93
21096;BME280;10706;49.036;12.112;2023-05-19T12:47:11;97982.56;;;24.29;36.13
21096;BME280;10706;49.036;12.112;2023-05-19T12:52:19;97983.81;;;23.56;35.97
21096;BME280;10706;49.036;12.112;2023-05-19T12:54:48;97975.25;;;22.50;39.04
21096;BME280;10706;49.036;12.112;2023-05-19T12:57:19;97979.91;;;22.72;40.74
21096;BME280;10706;49.036;12.112;2023-05-19T12:59:45;97978.59;;;23.37;38.20
21096;BME280;10706;49.036;12.112;2023-05-19T13:02:11;97988.91;;;23.49;37.82
21096;BME280;10706;49.036;12.112;2023-05-19T13:04:37;97985.09;;;22.60;38.23
21096;BME280;10706;49.036;12.112;2023-05-19T13:07:03;97982.38;;;22.09;40.40
21096;BME280;10706;49.036;12.112;2023-05-19T13:09:29;97978.38;;;21.51;41.17
21096;BME280;10706;49.036;12.112;2023-05-19T13:11:59;97980.50;;;21.68;41.72
21096;BME280;10706;49.036;12.112;2023-05-19T13:14:25;97968.75;;;22.82;38.63
21096;BME280;10706;49.036;12.112;2023-05-19T13:16:50;97971.47;;;22.82;38.63
21096;BME280;10706;49.036;12.112;2023-05-19T13:19:18;97965.25;;;21.95;41.01
21096;BME280;10706;49.036;12.112;2023-05-19T13:21:44;97967.56;;;21.32;42.19
21096;BME280;10706;49.036;12.112;2023-05-19T13:24:14;97962.84;;;20.91;42.73
21096;BME280;10706;49.036;12.112;2023-05-19T13:26:40;97961.25;;;21.51;43.14